createdAt,value
2022-09-19T00:01:18.992Z,4.07
2022-09-19T00:03:47.716Z,3.80
2022-09-19T00:06:16.196Z,4.00
2022-09-19T00:08:44.175Z,4.27
2022-09-19T00:11:12.306Z,4.53
2022-09-19T00:13:46.320Z,3.97
2022-09-19T00:16:13.818Z,3.30
2022-09-19T00:18:40.394Z,3.60
2022-09-19T00:21:06.881Z,3.60
2022-09-19T00:23:51.679Z,3.30
2022-09-19T00:26:19.873Z,3.90
2022-09-19T00:28:47.294Z,3.83
2022-09-19T00:31:19.144Z,3.53
2022-09-19T00:33:47.460Z,3.67
2022-09-19T00:36:15.133Z,4.00
2022-09-19T00:38:42.086Z,3.53
2022-09-19T00:41:09.324Z,3.57
2022-09-19T00:43:56.753Z,3.80
2022-09-19T00:46:25.096Z,3.70
2022-09-19T00:49:11.996Z,3.27
2022-09-19T00:51:47.404Z,3.60
2022-09-19T00:54:22.016Z,4.17
2022-09-19T00:56:52.321Z,3.80
2022-09-19T00:59:21.034Z,3.80
2022-09-19T01:01:47.807Z,3.20
2022-09-19T01:04:19.651Z,3.60
2022-09-19T01:07:01.371Z,3.40
2022-09-19T01:09:45.118Z,4.10
2022-09-19T01:12:28.148Z,3.97
2022-09-19T01:15:29.753Z,3.80
2022-09-19T01:17:59.004Z,4.00
2022-09-19T01:20:38.439Z,4.13
2022-09-19T01:23:44.798Z,4.00
2022-09-19T01:26:39.079Z,3.80
2022-09-19T01:29:46.106Z,4.50
2022-09-19T01:32:16.209Z,4.57
2022-09-19T01:34:47.687Z,4.00
2022-09-19T01:37:35.335Z,4.50
2022-09-19T01:40:04.958Z,4.80
2022-09-19T01:42:31.513Z,4.23
2022-09-19T01:44:57.951Z,4.77
2022-09-19T01:47:40.202Z,4.37
2022-09-19T01:50:33.015Z,4.30
2022-09-19T01:53:13.845Z,4.83
2022-09-19T01:56:06.714Z,4.23
2022-09-19T01:58:49.349Z,4.90
2022-09-19T02:01:34.774Z,4.27
2022-09-19T02:04:15.655Z,4.67
2022-09-19T02:06:59.993Z,4.60
2022-09-19T02:09:35.964Z,4.73
2022-09-19T02:12:02.850Z,4.70
2022-09-19T02:14:32.623Z,5.23
2022-09-19T02:17:04.636Z,4.33
2022-09-19T02:19:45.024Z,5.73
2022-09-19T02:22:33.881Z,5.03
2022-09-19T02:25:03.612Z,5.30
2022-09-19T02:27:35.979Z,5.80
2022-09-19T02:30:06.368Z,5.90
2022-09-19T02:32:34.434Z,5.67
2022-09-19T02:35:00.943Z,5.67
2022-09-19T02:37:31.616Z,5.03
2022-09-19T02:40:09.964Z,6.13
2022-09-19T02:42:58.756Z,6.13
2022-09-19T02:45:33.132Z,6.00
2022-09-19T02:48:21.724Z,5.80
2022-09-19T02:51:13.010Z,6.03
2022-09-19T02:53:43.870Z,6.00
2022-09-19T02:56:15.178Z,5.83
2022-09-19T02:58:51.990Z,6.40
2022-09-19T03:01:24.068Z,6.53
2022-09-19T03:04:13.384Z,6.33
2022-09-19T03:06:48.921Z,5.87
2022-09-19T03:09:19.099Z,5.63
2022-09-19T03:11:50.642Z,6.40
2022-09-19T03:14:18.691Z,6.30
2022-09-19T03:16:48.364Z,5.73
2022-09-19T03:19:15.113Z,6.40
2022-09-19T03:21:42.815Z,6.00
2022-09-19T03:24:09.673Z,6.03
2022-09-19T03:26:37.359Z,5.53
2022-09-19T03:29:06.723Z,6.50
2022-09-19T03:31:33.401Z,5.90
2022-09-19T03:33:59.894Z,6.30
2022-09-19T03:36:27.378Z,5.87
2022-09-19T03:38:53.917Z,6.50
2022-09-19T03:41:23.137Z,6.13
2022-09-19T03:43:51.027Z,6.70
2022-09-19T03:46:20.761Z,6.07
2022-09-19T03:48:47.718Z,5.53
2022-09-19T03:51:15.382Z,5.37
2022-09-19T03:53:43.829Z,5.87
2022-09-19T03:56:11.753Z,6.63
2022-09-19T03:58:42.031Z,6.83
2022-09-19T04:01:08.949Z,6.70
2022-09-19T04:03:36.898Z,7.30
2022-09-19T04:06:04.242Z,7.73
2022-09-19T04:08:31.094Z,7.10
2022-09-19T04:10:57.564Z,7.60
2022-09-19T04:13:24.173Z,6.80
2022-09-19T04:15:51.564Z,7.97
2022-09-19T04:18:19.332Z,7.90
2022-09-19T04:20:47.164Z,9.07
2022-09-19T04:23:14.993Z,8.50
2022-09-19T04:25:41.449Z,8.07
2022-09-19T04:28:10.255Z,8.50
2022-09-19T04:30:37.949Z,7.83
2022-09-19T04:33:05.661Z,8.57
2022-09-19T04:35:36.367Z,8.97
2022-09-19T04:38:04.155Z,9.13
2022-09-19T04:40:30.770Z,9.03
2022-09-19T04:42:58.660Z,8.87
2022-09-19T04:45:25.167Z,9.83
2022-09-19T04:47:52.041Z,8.93
2022-09-19T04:50:19.808Z,9.47
2022-09-19T04:52:46.436Z,9.07
2022-09-19T04:55:12.897Z,9.90
2022-09-19T04:57:39.592Z,9.43
2022-09-19T05:00:06.791Z,9.67
2022-09-19T05:02:33.677Z,9.63
2022-09-19T05:05:00.314Z,10.43
2022-09-19T05:07:34.320Z,8.90
2022-09-19T05:10:02.585Z,9.27
2022-09-19T05:12:29.810Z,10.40
2022-09-19T05:14:56.735Z,10.97
2022-09-19T05:17:24.547Z,10.60
2022-09-19T05:19:51.047Z,11.77
2022-09-19T05:22:17.904Z,12.90
2022-09-19T05:24:44.447Z,12.53
2022-09-19T05:27:12.631Z,13.73
2022-09-19T05:29:40.512Z,12.53
2022-09-19T05:32:07.162Z,13.37
2022-09-19T05:34:33.743Z,14.03
2022-09-19T05:37:00.165Z,14.30
2022-09-19T05:39:26.633Z,13.57
2022-09-19T05:41:53.145Z,13.87
2022-09-19T05:44:20.092Z,14.10
2022-09-19T05:46:46.771Z,14.97
2022-09-19T05:49:13.233Z,14.23
2022-09-19T05:51:39.679Z,14.87
2022-09-19T05:54:06.669Z,14.43
2022-09-19T05:56:33.225Z,13.83
2022-09-19T05:58:59.658Z,13.77
2022-09-19T06:01:26.247Z,14.10
2022-09-19T06:03:52.760Z,14.80
2022-09-19T06:06:22.236Z,15.23
2022-09-19T06:08:57.074Z,15.03
2022-09-19T06:11:24.045Z,14.43
2022-09-19T06:14:09.287Z,16.07
2022-09-19T06:16:36.956Z,16.20
2022-09-19T06:19:03.566Z,15.93
2022-09-19T06:21:32.193Z,14.80
2022-09-19T06:23:58.812Z,16.07
2022-09-19T06:26:25.988Z,16.30
2022-09-19T06:28:52.770Z,16.83
2022-09-19T06:31:19.346Z,18.37
2022-09-19T06:33:46.089Z,18.87
2022-09-19T06:36:12.866Z,16.87
2022-09-19T06:38:41.770Z,17.27
2022-09-19T06:41:09.437Z,17.33
2022-09-19T06:43:35.900Z,16.77
2022-09-19T06:46:02.656Z,17.50
2022-09-19T06:48:29.188Z,16.87
2022-09-19T06:50:55.599Z,16.77
2022-09-19T06:53:22.063Z,17.37
2022-09-19T06:55:48.936Z,16.97
2022-09-19T06:58:16.429Z,16.47
2022-09-19T07:00:45.739Z,16.13
2022-09-19T07:03:16.183Z,17.97
2022-09-19T07:05:44.001Z,18.37
2022-09-19T07:08:11.452Z,17.63
2022-09-19T07:10:37.989Z,17.27
2022-09-19T07:13:06.096Z,16.60
2022-09-19T07:15:34.513Z,16.80
2022-09-19T07:18:00.944Z,18.13
2022-09-19T07:20:28.786Z,16.93
2022-09-19T07:23:02.225Z,16.20
2022-09-19T07:25:32.649Z,17.43
2022-09-19T07:28:04.381Z,17.63
2022-09-19T07:30:32.739Z,17.13
2022-09-19T07:33:00.671Z,17.73
2022-09-19T07:35:32.636Z,17.10
2022-09-19T07:38:01.394Z,17.50
2022-09-19T07:40:27.989Z,18.20
2022-09-19T07:42:59.671Z,19.57
2022-09-19T07:45:26.264Z,20.07
2022-09-19T07:47:52.903Z,18.13
2022-09-19T07:50:19.698Z,18.33
2022-09-19T07:52:49.151Z,19.20
2022-09-19T07:55:15.855Z,19.50
2022-09-19T07:57:52.174Z,19.17
2022-09-19T08:00:19.643Z,18.67
2022-09-19T08:02:54.660Z,18.33
2022-09-19T08:05:22.315Z,19.07
2022-09-19T08:07:48.919Z,19.63
2022-09-19T08:10:16.960Z,20.63
2022-09-19T08:12:46.780Z,20.43
2022-09-19T08:15:19.509Z,19.87
2022-09-19T08:17:59.822Z,19.63
2022-09-19T08:20:27.431Z,19.07
2022-09-19T08:23:14.820Z,18.27
2022-09-19T08:25:47.311Z,16.63
2022-09-19T08:28:14.905Z,16.67
2022-09-19T08:30:43.286Z,15.47
2022-09-19T08:33:13.080Z,15.40
2022-09-19T08:35:41.112Z,16.23
2022-09-19T08:38:08.815Z,15.57
2022-09-19T08:40:41.041Z,16.60
2022-09-19T08:43:22.649Z,16.47
2022-09-19T08:46:13.743Z,16.23
2022-09-19T08:48:55.074Z,16.10
2022-09-19T08:51:39.313Z,16.13
2022-09-19T08:54:27.292Z,15.40
2022-09-19T08:56:54.059Z,16.43
2022-09-19T08:59:24.280Z,16.63
2022-09-19T09:02:12.920Z,15.90
2022-09-19T09:04:40.907Z,14.83
2022-09-19T09:07:16.120Z,15.53
2022-09-19T09:10:04.221Z,15.67
2022-09-19T09:12:41.707Z,13.57
2022-09-19T09:15:32.859Z,13.43
2022-09-19T09:18:29.396Z,14.23
2022-09-19T09:21:04.307Z,13.47
2022-09-19T09:23:35.941Z,13.03
2022-09-19T09:26:07.402Z,13.03
2022-09-19T09:28:44.066Z,13.10
2022-09-19T09:31:26.213Z,12.70
2022-09-19T09:33:58.152Z,12.30
2022-09-19T09:36:33.128Z,13.47
2022-09-19T09:39:09.657Z,12.47
2022-09-19T09:41:51.452Z,11.57
2022-09-19T09:44:22.034Z,11.00
2022-09-19T09:46:51.338Z,11.37
2022-09-19T09:49:18.918Z,12.07
2022-09-19T09:52:10.248Z,11.03
2022-09-19T09:55:28.025Z,11.40
2022-09-19T09:58:13.987Z,9.60
2022-09-19T10:01:01.735Z,9.50
2022-09-19T10:03:43.927Z,10.03
2022-09-19T10:06:16.352Z,10.00
2022-09-19T10:09:07.457Z,10.07
2022-09-19T10:14:32.891Z,9.40
2022-09-19T10:17:02.542Z,9.53
2022-09-19T10:19:36.850Z,9.90
2022-09-19T10:22:03.763Z,10.53
2022-09-19T10:24:54.248Z,10.20
2022-09-19T10:27:34.222Z,10.30
2022-09-19T10:30:18.059Z,9.47
2022-09-19T10:32:45.373Z,8.90
2022-09-19T10:35:28.213Z,8.97
2022-09-19T10:38:14.734Z,9.03
2022-09-19T10:41:01.121Z,8.80
2022-09-19T10:43:33.161Z,9.73
2022-09-19T10:46:07.576Z,8.80
2022-09-19T10:48:39.676Z,9.80
2022-09-19T10:51:09.256Z,9.20
2022-09-19T10:53:38.132Z,9.27
2022-09-19T10:56:08.862Z,9.50
2022-09-19T10:58:40.873Z,10.43
2022-09-19T11:01:09.627Z,9.27
2022-09-19T11:03:40.473Z,10.87
2022-09-19T11:06:14.567Z,10.47
2022-09-19T11:08:49.495Z,9.13
2022-09-19T11:11:48.732Z,8.93
2022-09-19T11:14:30.204Z,9.67
2022-09-19T11:17:34.964Z,8.20
2022-09-19T11:20:20.162Z,8.13
2022-09-19T11:23:18.121Z,8.43
2022-09-19T11:26:28.822Z,7.50
2022-09-19T11:29:18.628Z,6.90
2022-09-19T11:35:28.594Z,6.70
2022-09-19T11:41:26.744Z,6.33
2022-09-19T11:44:08.380Z,6.47
2022-09-19T11:46:50.516Z,5.97
2022-09-19T11:49:48.349Z,5.60
2022-09-19T11:52:36.972Z,5.87
2022-09-19T11:55:34.262Z,6.20
2022-09-19T11:58:28.917Z,6.73
2022-09-19T12:01:06.673Z,5.83
2022-09-19T12:04:06.901Z,5.57
2022-09-19T12:06:56.715Z,5.73
2022-09-19T12:09:33.805Z,5.93
2022-09-19T12:12:10.136Z,5.70
2022-09-19T12:14:42.955Z,5.63
2022-09-19T12:17:35.394Z,5.47
2022-09-19T12:20:15.746Z,5.87
2022-09-19T12:22:49.065Z,6.20
2022-09-19T12:25:22.110Z,5.73
2022-09-19T12:28:07.255Z,6.13
2022-09-19T12:30:42.215Z,6.00
2022-09-19T12:33:34.651Z,5.10
2022-09-19T12:36:31.405Z,5.47
2022-09-19T12:39:04.156Z,6.07
2022-09-19T12:41:55.415Z,6.47
2022-09-19T12:44:27.177Z,6.57
2022-09-19T12:47:02.728Z,6.63
2022-09-19T12:49:57.497Z,7.17
2022-09-19T12:52:36.803Z,5.60
2022-09-19T12:55:16.609Z,4.87
2022-09-19T12:57:52.154Z,4.93
2022-09-19T13:00:21.845Z,4.53
2022-09-19T13:03:19.085Z,5.00
2022-09-19T13:05:56.934Z,4.83
2022-09-19T13:08:28.665Z,5.03
2022-09-19T13:11:09.775Z,4.80
2022-09-19T13:13:53.139Z,4.77
2022-09-19T13:16:29.667Z,4.70
2022-09-19T13:19:15.357Z,4.03
2022-09-19T13:22:02.446Z,4.33
2022-09-19T13:24:37.970Z,4.50
2022-09-19T13:27:05.739Z,3.27
2022-09-19T13:29:32.564Z,3.70
2022-09-19T13:32:08.134Z,4.13
2022-09-19T13:34:40.373Z,4.23
2022-09-19T13:37:45.425Z,4.73
2022-09-19T13:40:16.931Z,4.40
2022-09-19T13:42:51.325Z,4.43
2022-09-19T13:45:29.984Z,4.77
2022-09-19T13:48:12.442Z,10.67
2022-09-19T13:50:53.959Z,9.27
2022-09-19T13:53:34.504Z,7.17
2022-09-19T13:56:15.979Z,5.50
2022-09-19T13:58:43.571Z,5.20
2022-09-19T14:01:13.562Z,5.47
2022-09-19T14:03:46.649Z,6.93
2022-09-19T14:06:28.634Z,7.07
2022-09-19T14:12:01.960Z,7.03
2022-09-19T14:14:41.934Z,7.73
2022-09-19T14:17:19.397Z,7.57
2022-09-19T14:19:55.434Z,7.87
2022-09-19T14:22:35.802Z,6.70
2022-09-19T14:25:24.825Z,6.63
2022-09-19T14:28:00.450Z,6.77
2022-09-19T14:31:05.864Z,6.40
2022-09-19T14:33:56.117Z,6.50
2022-09-19T14:36:35.431Z,6.87
2022-09-19T14:39:30.548Z,6.47
2022-09-19T14:42:14.275Z,6.93
2022-09-19T14:45:03.700Z,6.80
2022-09-19T14:47:36.737Z,6.20
2022-09-19T14:50:11.264Z,6.17
2022-09-19T14:52:41.300Z,5.97
2022-09-19T14:55:14.524Z,7.10
2022-09-19T14:57:48.090Z,7.47
2022-09-19T15:00:32.287Z,7.63
2022-09-19T15:03:01.042Z,7.53
2022-09-19T15:05:33.031Z,7.20
2022-09-19T15:08:30.089Z,7.43
2022-09-19T15:11:04.485Z,7.23
2022-09-19T15:13:42.643Z,6.40
2022-09-19T15:16:10.892Z,7.00
2022-09-19T15:18:41.884Z,7.47
2022-09-19T15:21:10.138Z,6.60
2022-09-19T15:23:37.892Z,6.60
2022-09-19T15:26:15.464Z,6.73
2022-09-19T15:28:43.028Z,6.43
2022-09-19T15:31:12.320Z,6.33
2022-09-19T15:33:39.326Z,5.93
2022-09-19T15:36:07.504Z,5.80
2022-09-19T15:38:35.740Z,6.73
2022-09-19T15:41:05.413Z,6.07
2022-09-19T15:43:33.565Z,6.47
2022-09-19T15:46:03.179Z,6.63
2022-09-19T15:48:35.234Z,7.00
2022-09-19T15:51:04.394Z,7.30
2022-09-19T15:53:37.756Z,6.93
2022-09-19T15:56:07.935Z,7.07
2022-09-19T15:58:45.282Z,7.37
2022-09-19T16:01:16.376Z,7.07
2022-09-19T16:03:49.499Z,7.40
2022-09-19T16:06:43.122Z,8.53
2022-09-19T16:09:11.494Z,7.67
2022-09-19T16:11:44.447Z,7.83
2022-09-19T16:14:27.890Z,8.37
2022-09-19T16:16:55.883Z,7.63
2022-09-19T16:19:41.285Z,7.53
2022-09-19T16:22:08.059Z,7.63
2022-09-19T16:24:41.763Z,7.30
2022-09-19T16:27:08.441Z,7.50
2022-09-19T16:29:37.302Z,8.70
2022-09-19T16:32:05.048Z,7.17
2022-09-19T16:34:38.095Z,7.60
2022-09-19T16:37:05.719Z,7.80
2022-09-19T16:39:34.912Z,7.17
2022-09-19T16:42:17.750Z,8.00
2022-09-19T16:45:09.154Z,8.87
2022-09-19T16:47:35.964Z,7.77
2022-09-19T16:50:02.573Z,7.67
2022-09-19T16:52:33.094Z,7.70
2022-09-19T16:55:01.968Z,7.57
2022-09-19T16:57:28.897Z,8.40
2022-09-19T16:59:56.563Z,8.70
2022-09-19T17:02:28.655Z,7.67
2022-09-19T17:04:56.428Z,8.67
2022-09-19T17:07:23.168Z,8.20
2022-09-19T17:09:50.385Z,7.87
2022-09-19T17:12:19.398Z,7.67
2022-09-19T17:14:46.396Z,9.10
2022-09-19T17:17:13.698Z,8.13
2022-09-19T17:19:44.350Z,8.70
2022-09-19T17:22:13.449Z,9.00
2022-09-19T17:24:40.779Z,10.17
2022-09-19T17:27:08.006Z,10.60
2022-09-19T17:29:34.906Z,10.60
2022-09-19T17:32:02.407Z,9.80
2022-09-19T17:34:29.043Z,10.30
2022-09-19T17:36:55.497Z,9.60
2022-09-19T17:39:21.928Z,9.80
2022-09-19T17:41:50.081Z,10.67
2022-09-19T17:44:16.810Z,11.90
2022-09-19T17:46:43.904Z,11.03
2022-09-19T17:49:10.815Z,10.97
2022-09-19T17:51:37.596Z,11.43
2022-09-19T17:54:04.676Z,11.57
2022-09-19T17:56:31.255Z,12.40
2022-09-19T17:59:03.074Z,11.97
2022-09-19T18:01:50.578Z,12.60
2022-09-19T18:04:20.197Z,11.97
2022-09-19T18:06:47.316Z,11.77
2022-09-19T18:09:15.204Z,11.43
2022-09-19T18:11:42.165Z,11.17
2022-09-19T18:14:11.597Z,10.70
2022-09-19T18:16:41.551Z,10.90
2022-09-19T18:19:09.692Z,11.67
2022-09-19T18:21:40.702Z,10.43
2022-09-19T18:24:08.674Z,11.43
2022-09-19T18:26:35.148Z,11.40
2022-09-19T18:29:03.109Z,11.27
2022-09-19T18:31:29.846Z,11.60
2022-09-19T18:33:56.302Z,12.10
2022-09-19T18:36:24.519Z,12.23
2022-09-19T18:38:54.900Z,12.90
2022-09-19T18:41:23.082Z,12.57
2022-09-19T18:43:50.121Z,12.40
2022-09-19T18:46:21.934Z,12.50
2022-09-19T18:48:49.989Z,14.30
2022-09-19T18:51:19.357Z,14.50
2022-09-19T18:53:48.171Z,13.73
2022-09-19T18:56:14.695Z,13.80
2022-09-19T18:58:41.674Z,14.57
2022-09-19T19:01:10.107Z,14.17
2022-09-19T19:03:41.256Z,15.07
2022-09-19T19:06:18.708Z,15.17
2022-09-19T19:08:49.774Z,14.13
2022-09-19T19:11:19.186Z,15.67
2022-09-19T19:13:45.722Z,15.93
2022-09-19T19:16:17.439Z,15.67
2022-09-19T19:18:50.878Z,14.77
2022-09-19T19:21:28.716Z,15.57
2022-09-19T19:23:57.050Z,16.60
2022-09-19T19:26:25.471Z,15.53
2022-09-19T19:28:52.662Z,15.93
2022-09-19T19:31:20.254Z,15.63
2022-09-19T19:33:47.956Z,16.03
2022-09-19T19:36:16.892Z,15.83
2022-09-19T19:38:48.576Z,16.83
2022-09-19T19:41:26.016Z,15.83
2022-09-19T19:43:53.602Z,15.93
2022-09-19T19:46:22.209Z,15.60
2022-09-19T19:48:50.781Z,16.40
2022-09-19T19:51:21.409Z,16.13
2022-09-19T19:53:49.132Z,16.70
2022-09-19T19:56:23.585Z,16.20
2022-09-19T19:58:53.591Z,16.90
2022-09-19T20:01:22.448Z,17.10
2022-09-19T20:03:50.661Z,16.87
2022-09-19T20:06:27.260Z,17.80
2022-09-19T20:08:54.896Z,18.03
2022-09-19T20:11:21.762Z,18.37
2022-09-19T20:13:57.351Z,19.80
2022-09-19T20:16:25.731Z,19.43
2022-09-19T20:18:53.570Z,19.47
2022-09-19T20:21:22.409Z,19.07
2022-09-19T20:23:49.712Z,20.57
2022-09-19T20:26:20.901Z,21.33
2022-09-19T20:28:51.945Z,22.13
2022-09-19T20:31:20.878Z,21.87
2022-09-19T20:33:48.168Z,23.77
2022-09-19T20:36:15.968Z,22.63
2022-09-19T20:38:43.059Z,23.90
2022-09-19T20:41:11.669Z,23.57
2022-09-19T20:43:38.309Z,23.30
2022-09-19T20:46:14.510Z,23.50
2022-09-19T20:48:41.745Z,22.80
2022-09-19T20:51:09.642Z,22.73
2022-09-19T20:53:38.141Z,23.33
2022-09-19T20:56:06.933Z,24.67
2022-09-19T20:58:33.660Z,24.27
2022-09-19T21:01:05.252Z,23.37
2022-09-19T21:03:32.723Z,23.77
2022-09-19T21:05:59.569Z,23.40
2022-09-19T21:08:27.848Z,23.77
2022-09-19T21:11:05.384Z,22.47
2022-09-19T21:13:36.520Z,24.03
2022-09-19T21:16:16.853Z,22.27
2022-09-19T21:18:47.168Z,23.10
2022-09-19T21:21:17.478Z,24.10
2022-09-19T21:23:44.237Z,22.10
2022-09-19T21:26:11.893Z,23.87
2022-09-19T21:28:42.238Z,22.13
2022-09-19T21:31:14.083Z,23.43
2022-09-19T21:33:40.795Z,22.77
2022-09-19T21:36:07.691Z,21.17
2022-09-19T21:38:34.661Z,23.43
2022-09-19T21:41:05.813Z,23.27
2022-09-19T21:43:35.921Z,21.67
2022-09-19T21:46:14.253Z,24.00
2022-09-19T21:48:42.356Z,21.90
2022-09-19T21:51:13.329Z,22.90
2022-09-19T21:53:40.065Z,21.97
2022-09-19T21:56:06.845Z,22.43
2022-09-19T21:58:34.289Z,21.87
2022-09-19T22:01:00.874Z,22.37
2022-09-19T22:03:28.803Z,21.97
2022-09-19T22:05:59.898Z,21.63
2022-09-19T22:08:27.339Z,21.00
2022-09-19T22:11:01.680Z,21.73
2022-09-19T22:13:28.808Z,21.00
2022-09-19T22:15:59.709Z,22.47
2022-09-19T22:18:27.241Z,22.67
2022-09-19T22:20:54.290Z,21.33
2022-09-19T22:23:20.964Z,23.27
2022-09-19T22:25:47.712Z,22.60
2022-09-19T22:28:14.909Z,22.47
2022-09-19T22:30:41.611Z,21.47
2022-09-19T22:33:08.293Z,21.93
2022-09-19T22:35:34.766Z,21.90
2022-09-19T22:38:01.169Z,21.23
2022-09-19T22:40:31.464Z,20.90
2022-09-19T22:42:59.496Z,21.40
2022-09-19T22:45:25.921Z,21.80
2022-09-19T22:47:52.339Z,21.77
2022-09-19T22:50:19.270Z,21.00
2022-09-19T22:52:46.893Z,21.63
2022-09-19T22:55:13.436Z,22.17
2022-09-19T22:57:39.894Z,21.47
2022-09-19T23:00:06.757Z,22.40
2022-09-19T23:02:33.447Z,23.07
2022-09-19T23:04:59.959Z,23.87
2022-09-19T23:07:26.374Z,22.03
2022-09-19T23:09:53.076Z,22.57
2022-09-19T23:12:19.485Z,22.33
2022-09-19T23:14:45.926Z,22.57
2022-09-19T23:17:12.443Z,23.60
2022-09-19T23:19:38.844Z,23.07
2022-09-19T23:22:05.373Z,22.90
2022-09-19T23:24:32.079Z,22.97
2022-09-19T23:26:59.655Z,21.67
2022-09-19T23:29:26.432Z,22.27
2022-09-19T23:31:53.386Z,21.20
2022-09-19T23:34:20.980Z,20.67
2022-09-19T23:36:48.782Z,22.87
2022-09-19T23:39:15.295Z,23.80
2022-09-19T23:41:42.035Z,21.90
2022-09-19T23:44:08.639Z,22.80
2022-09-19T23:46:35.605Z,22.10
2022-09-19T23:49:03.231Z,21.80
2022-09-19T23:51:30.403Z,22.97
2022-09-19T23:53:58.619Z,22.80
2022-09-19T23:56:27.178Z,20.80
2022-09-19T23:58:53.865Z,21.93
